sensor_id;sensor_type;location;lat;lon;timestamp;P1;durP1;ratioP1;P2;durP2;ratioP2
7899;SDS011;3995;50.856;4.404;2024-02-26T00:00:14;2.00;;;1.35;;
7899;SDS011;3995;50.856;4.404;2024-02-26T00:02:41;1.70;;;1.10;;
7899;SDS011;3995;50.856;4.404;2024-02-26T00:05:08;2.72;;;1.23;;
7899;SDS011;3995;50.856;4.404;2024-02-26T00:07:35;2.65;;;1.35;;
7899;SDS011;3995;50.856;4.404;2024-02-26T00:10:04;2.35;;;1.23;;
7899;SDS011;3995;50.856;4.404;2024-02-26T00:12:31;1.92;;;0.93;;
7899;SDS011;3995;50.856;4.404;2024-02-26T00:14:58;2.25;;;1.33;;
7899;SDS011;3995;50.856;4.404;2024-02-26T00:17:27;2.03;;;1.20;;
7899;SDS011;3995;50.856;4.404;2024-02-26T00:19:54;1.65;;;1.40;;
7899;SDS011;3995;50.856;4.404;2024-02-26T00:22:21;2.00;;;1.40;;
7899;SDS011;3995;50.856;4.404;2024-02-26T00:24:48;3.57;;;1.30;;
7899;SDS011;3995;50.856;4.404;2024-02-26T00:27:15;2.22;;;1.40;;
7899;SDS011;3995;50.856;4.404;2024-02-26T00:29:42;3.08;;;1.20;;
7899;SDS011;3995;50.856;4.404;2024-02-26T00:32:09;1.30;;;1.00;;
7899;SDS011;3995;50.856;4.404;2024-02-26T00:34:37;2.27;;;1.40;;
7899;SDS011;3995;50.856;4.404;2024-02-26T00:37:04;2.03;;;1.20;;
7899;SDS011;3995;50.856;4.404;2024-02-26T00:39:31;3.72;;;1.60;;
7899;SDS011;3995;50.856;4.404;2024-02-26T00:41:58;1.45;;;1.10;;
7899;SDS011;3995;50.856;4.404;2024-02-26T00:44:25;2.63;;;1.27;;
7899;SDS011;3995;50.856;4.404;2024-02-26T00:46:52;3.05;;;1.13;;
7899;SDS011;3995;50.856;4.404;2024-02-26T00:49:19;2.25;;;1.13;;
7899;SDS011;3995;50.856;4.404;2024-02-26T00:51:47;1.42;;;1.15;;
7899;SDS011;3995;50.856;4.404;2024-02-26T00:54:14;1.95;;;1.17;;
7899;SDS011;3995;50.856;4.404;2024-02-26T00:56:41;2.58;;;1.60;;
7899;SDS011;3995;50.856;4.404;2024-02-26T00:59:08;1.97;;;1.13;;
7899;SDS011;3995;50.856;4.404;2024-02-26T01:01:35;1.42;;;1.02;;
7899;SDS011;3995;50.856;4.404;2024-02-26T01:04:02;1.58;;;1.23;;
7899;SDS011;3995;50.856;4.404;2024-02-26T01:06:29;1.40;;;1.00;;
7899;SDS011;3995;50.856;4.404;2024-02-26T01:08:58;1.60;;;1.10;;
7899;SDS011;3995;50.856;4.404;2024-02-26T01:11:25;1.80;;;1.10;;
7899;SDS011;3995;50.856;4.404;2024-02-26T01:13:52;4.45;;;1.20;;
7899;SDS011;3995;50.856;4.404;2024-02-26T01:16:21;1.58;;;1.00;;
7899;SDS011;3995;50.856;4.404;2024-02-26T01:18:48;3.80;;;1.20;;
7899;SDS011;3995;50.856;4.404;2024-02-26T01:21:15;2.47;;;1.58;;
7899;SDS011;3995;50.856;4.404;2024-02-26T01:23:42;2.75;;;1.48;;
7899;SDS011;3995;50.856;4.404;2024-02-26T01:26:10;2.03;;;1.30;;
7899;SDS011;3995;50.856;4.404;2024-02-26T01:28:37;2.83;;;1.35;;
7899;SDS011;3995;50.856;4.404;2024-02-26T01:31:04;1.45;;;1.10;;
7899;SDS011;3995;50.856;4.404;2024-02-26T01:33:33;1.33;;;1.02;;
7899;SDS011;3995;50.856;4.404;2024-02-26T01:36:00;1.92;;;0.90;;
7899;SDS011;3995;50.856;4.404;2024-02-26T01:38:27;1.70;;;1.40;;
7899;SDS011;3995;50.856;4.404;2024-02-26T01:40:54;1.70;;;1.10;;
7899;SDS011;3995;50.856;4.404;2024-02-26T01:43:23;3.47;;;1.30;;
7899;SDS011;3995;50.856;4.404;2024-02-26T01:45:50;1.55;;;1.02;;
7899;SDS011;3995;50.856;4.404;2024-02-26T01:48:17;2.30;;;1.20;;
7899;SDS011;3995;50.856;4.404;2024-02-26T01:50:44;2.63;;;1.52;;
7899;SDS011;3995;50.856;4.404;2024-02-26T01:53:11;2.17;;;1.15;;
7899;SDS011;3995;50.856;4.404;2024-02-26T01:55:38;3.30;;;1.50;;
7899;SDS011;3995;50.856;4.404;2024-02-26T01:58:06;3.92;;;1.05;;
7899;SDS011;3995;50.856;4.404;2024-02-26T02:00:35;1.65;;;1.13;;
7899;SDS011;3995;50.856;4.404;2024-02-26T02:03:03;1.60;;;1.10;;
7899;SDS011;3995;50.856;4.404;2024-02-26T02:05:31;2.22;;;1.10;;
7899;SDS011;3995;50.856;4.404;2024-02-26T02:07:59;1.40;;;0.93;;
7899;SDS011;3995;50.856;4.404;2024-02-26T02:10:28;1.75;;;1.30;;
7899;SDS011;3995;50.856;4.404;2024-02-26T02:12:55;1.58;;;0.98;;
7899;SDS011;3995;50.856;4.404;2024-02-26T02:15:22;1.92;;;1.20;;
7899;SDS011;3995;50.856;4.404;2024-02-26T02:17:51;1.75;;;1.00;;
7899;SDS011;3995;50.856;4.404;2024-02-26T02:20:18;1.38;;;1.10;;
7899;SDS011;3995;50.856;4.404;2024-02-26T02:22:47;2.10;;;1.10;;
7899;SDS011;3995;50.856;4.404;2024-02-26T02:25:14;2.50;;;0.95;;
7899;SDS011;3995;50.856;4.404;2024-02-26T02:27:41;2.13;;;1.25;;
7899;SDS011;3995;50.856;4.404;2024-02-26T02:30:09;2.80;;;1.30;;
7899;SDS011;3995;50.856;4.404;2024-02-26T02:32:37;2.42;;;0.90;;
7899;SDS011;3995;50.856;4.404;2024-02-26T02:35:06;2.47;;;1.15;;
7899;SDS011;3995;50.856;4.404;2024-02-26T02:37:34;2.50;;;0.90;;
7899;SDS011;3995;50.856;4.404;2024-02-26T02:40:02;2.80;;;1.30;;
7899;SDS011;3995;50.856;4.404;2024-02-26T02:42:30;1.35;;;1.10;;
7899;SDS011;3995;50.856;4.404;2024-02-26T02:44:57;1.40;;;0.90;;
7899;SDS011;3995;50.856;4.404;2024-02-26T02:47:24;2.17;;;1.20;;
7899;SDS011;3995;50.856;4.404;2024-02-26T02:49:51;2.08;;;1.20;;
7899;SDS011;3995;50.856;4.404;2024-02-26T02:52:18;2.33;;;0.85;;
7899;SDS011;3995;50.856;4.404;2024-02-26T02:54:45;2.75;;;1.33;;
7899;SDS011;3995;50.856;4.404;2024-02-26T02:57:13;1.60;;;1.00;;
7899;SDS011;3995;50.856;4.404;2024-02-26T02:59:40;1.90;;;0.90;;
7899;SDS011;3995;50.856;4.404;2024-02-26T03:02:07;1.75;;;1.25;;
7899;SDS011;3995;50.856;4.404;2024-02-26T03:04:34;2.38;;;1.00;;
7899;SDS011;3995;50.856;4.404;2024-02-26T03:07:01;1.10;;;0.90;;
7899;SDS011;3995;50.856;4.404;2024-02-26T03:09:28;1.80;;;1.20;;
7899;SDS011;3995;50.856;4.404;2024-02-26T03:11:55;1.23;;;1.00;;
7899;SDS011;3995;50.856;4.404;2024-02-26T03:14:24;2.25;;;1.20;;
7899;SDS011;3995;50.856;4.404;2024-02-26T03:16:53;2.17;;;1.10;;
7899;SDS011;3995;50.856;4.404;2024-02-26T03:19:20;3.10;;;1.42;;
7899;SDS011;3995;50.856;4.404;2024-02-26T03:21:47;3.40;;;0.93;;
7899;SDS011;3995;50.856;4.404;2024-02-26T03:24:14;3.40;;;1.10;;
7899;SDS011;3995;50.856;4.404;2024-02-26T03:26:41;1.40;;;1.10;;
7899;SDS011;3995;50.856;4.404;2024-02-26T03:29:09;4.25;;;1.30;;
7899;SDS011;3995;50.856;4.404;2024-02-26T03:31:37;1.98;;;1.27;;
7899;SDS011;3995;50.856;4.404;2024-02-26T03:34:04;1.40;;;1.10;;
7899;SDS011;3995;50.856;4.404;2024-02-26T03:36:31;1.40;;;1.05;;
7899;SDS011;3995;50.856;4.404;2024-02-26T03:38:58;1.77;;;1.15;;
7899;SDS011;3995;50.856;4.404;2024-02-26T03:41:25;1.60;;;1.23;;
7899;SDS011;3995;50.856;4.404;2024-02-26T03:43:52;3.35;;;1.52;;
7899;SDS011;3995;50.856;4.404;2024-02-26T03:46:19;1.60;;;1.05;;
7899;SDS011;3995;50.856;4.404;2024-02-26T03:48:48;1.73;;;1.10;;
7899;SDS011;3995;50.856;4.404;2024-02-26T03:51:15;1.45;;;1.10;;
7899;SDS011;3995;50.856;4.404;2024-02-26T03:53:42;2.45;;;1.23;;
7899;SDS011;3995;50.856;4.404;2024-02-26T03:56:09;1.83;;;1.15;;
7899;SDS011;3995;50.856;4.404;2024-02-26T03:58:38;3.28;;;1.58;;
7899;SDS011;3995;50.856;4.404;2024-02-26T04:01:07;1.42;;;1.10;;
7899;SDS011;3995;50.856;4.404;2024-02-26T04:03:34;1.45;;;1.10;;
7899;SDS011;3995;50.856;4.404;2024-02-26T04:06:03;2.00;;;1.20;;
7899;SDS011;3995;50.856;4.404;2024-02-26T04:08:30;2.15;;;1.30;;
7899;SDS011;3995;50.856;4.404;2024-02-26T04:10:57;1.33;;;1.10;;
7899;SDS011;3995;50.856;4.404;2024-02-26T04:13:24;1.92;;;1.25;;
7899;SDS011;3995;50.856;4.404;2024-02-26T04:15:51;1.67;;;1.40;;
7899;SDS011;3995;50.856;4.404;2024-02-26T04:18:18;1.88;;;1.27;;
7899;SDS011;3995;50.856;4.404;2024-02-26T04:20:45;2.78;;;1.48;;
7899;SDS011;3995;50.856;4.404;2024-02-26T04:23:14;1.88;;;1.33;;
7899;SDS011;3995;50.856;4.404;2024-02-26T04:25:40;4.50;;;2.00;;
7899;SDS011;3995;50.856;4.404;2024-02-26T04:28:07;1.90;;;1.45;;
7899;SDS011;3995;50.856;4.404;2024-02-26T04:30:34;3.45;;;1.58;;
7899;SDS011;3995;50.856;4.404;2024-02-26T04:33:01;3.35;;;1.80;;
7899;SDS011;3995;50.856;4.404;2024-02-26T04:35:28;2.70;;;1.30;;
7899;SDS011;3995;50.856;4.404;2024-02-26T04:37:55;4.63;;;2.35;;
7899;SDS011;3995;50.856;4.404;2024-02-26T04:40:24;2.38;;;1.67;;
7899;SDS011;3995;50.856;4.404;2024-02-26T04:42:51;2.88;;;1.63;;
7899;SDS011;3995;50.856;4.404;2024-02-26T04:45:18;1.92;;;1.50;;
7899;SDS011;3995;50.856;4.404;2024-02-26T04:47:45;2.60;;;1.75;;
7899;SDS011;3995;50.856;4.404;2024-02-26T04:50:12;2.03;;;1.60;;
7899;SDS011;3995;50.856;4.404;2024-02-26T04:52:39;2.60;;;1.95;;
7899;SDS011;3995;50.856;4.404;2024-02-26T04:55:07;3.17;;;1.88;;
7899;SDS011;3995;50.856;4.404;2024-02-26T04:57:36;2.10;;;1.80;;
7899;SDS011;3995;50.856;4.404;2024-02-26T05:00:03;2.70;;;1.70;;
7899;SDS011;3995;50.856;4.404;2024-02-26T05:02:31;3.05;;;1.92;;
7899;SDS011;3995;50.856;4.404;2024-02-26T05:05:03;2.47;;;1.75;;
7899;SDS011;3995;50.856;4.404;2024-02-26T05:07:30;2.90;;;2.10;;
7899;SDS011;3995;50.856;4.404;2024-02-26T05:09:57;2.70;;;2.20;;
7899;SDS011;3995;50.856;4.404;2024-02-26T05:12:24;2.22;;;2.00;;
7899;SDS011;3995;50.856;4.404;2024-02-26T05:14:52;3.08;;;2.15;;
7899;SDS011;3995;50.856;4.404;2024-02-26T05:17:19;3.45;;;2.10;;
7899;SDS011;3995;50.856;4.404;2024-02-26T05:19:46;4.75;;;2.60;;
7899;SDS011;3995;50.856;4.404;2024-02-26T05:22:13;2.58;;;1.92;;
7899;SDS011;3995;50.856;4.404;2024-02-26T05:24:41;3.00;;;2.05;;
7899;SDS011;3995;50.856;4.404;2024-02-26T05:27:08;2.90;;;2.60;;
7899;SDS011;3995;50.856;4.404;2024-02-26T05:29:35;3.20;;;2.63;;
7899;SDS011;3995;50.856;4.404;2024-02-26T05:32:04;2.80;;;2.50;;
7899;SDS011;3995;50.856;4.404;2024-02-26T05:34:32;3.47;;;2.55;;
7899;SDS011;3995;50.856;4.404;2024-02-26T05:36:59;4.78;;;2.95;;
7899;SDS011;3995;50.856;4.404;2024-02-26T05:39:26;4.10;;;3.00;;
7899;SDS011;3995;50.856;4.404;2024-02-26T05:41:53;3.40;;;2.97;;
7899;SDS011;3995;50.856;4.404;2024-02-26T05:44:22;3.78;;;3.42;;
7899;SDS011;3995;50.856;4.404;2024-02-26T05:46:49;3.30;;;3.00;;
7899;SDS011;3995;50.856;4.404;2024-02-26T05:49:17;4.18;;;3.70;;
7899;SDS011;3995;50.856;4.404;2024-02-26T05:51:44;6.50;;;4.10;;
7899;SDS011;3995;50.856;4.404;2024-02-26T05:54:11;3.97;;;3.58;;
7899;SDS011;3995;50.856;4.404;2024-02-26T05:56:39;5.80;;;3.80;;
7899;SDS011;3995;50.856;4.404;2024-02-26T05:59:05;4.25;;;3.20;;
7899;SDS011;3995;50.856;4.404;2024-02-26T06:01:33;4.32;;;3.70;;
7899;SDS011;3995;50.856;4.404;2024-02-26T06:03:59;4.50;;;3.70;;
7899;SDS011;3995;50.856;4.404;2024-02-26T06:06:28;4.00;;;3.55;;
7899;SDS011;3995;50.856;4.404;2024-02-26T06:08:55;3.60;;;3.22;;
7899;SDS011;3995;50.856;4.404;2024-02-26T06:11:22;6.03;;;3.60;;
7899;SDS011;3995;50.856;4.404;2024-02-26T06:13:49;4.32;;;3.33;;
7899;SDS011;3995;50.856;4.404;2024-02-26T06:16:16;3.95;;;3.33;;
7899;SDS011;3995;50.856;4.404;2024-02-26T06:18:43;3.45;;;3.10;;
7899;SDS011;3995;50.856;4.404;2024-02-26T06:21:10;4.00;;;3.30;;
7899;SDS011;3995;50.856;4.404;2024-02-26T06:23:38;3.55;;;3.25;;
7899;SDS011;3995;50.856;4.404;2024-02-26T06:26:05;3.65;;;3.15;;
7899;SDS011;3995;50.856;4.404;2024-02-26T06:28:32;3.85;;;3.10;;
7899;SDS011;3995;50.856;4.404;2024-02-26T06:31:00;3.50;;;3.20;;
7899;SDS011;3995;50.856;4.404;2024-02-26T06:33:27;3.20;;;2.90;;
7899;SDS011;3995;50.856;4.404;2024-02-26T06:35:54;3.40;;;3.10;;
7899;SDS011;3995;50.856;4.404;2024-02-26T06:38:21;5.10;;;3.03;;
7899;SDS011;3995;50.856;4.404;2024-02-26T06:40:50;3.70;;;3.30;;
7899;SDS011;3995;50.856;4.404;2024-02-26T06:43:17;4.43;;;3.53;;
7899;SDS011;3995;50.856;4.404;2024-02-26T06:45:44;6.00;;;2.80;;
7899;SDS011;3995;50.856;4.404;2024-02-26T06:48:11;3.22;;;2.92;;
7899;SDS011;3995;50.856;4.404;2024-02-26T06:50:38;3.55;;;3.15;;
7899;SDS011;3995;50.856;4.404;2024-02-26T06:53:06;3.40;;;3.10;;
7899;SDS011;3995;50.856;4.404;2024-02-26T06:55:33;4.00;;;3.60;;
7899;SDS011;3995;50.856;4.404;2024-02-26T06:58:01;3.80;;;3.25;;
7899;SDS011;3995;50.856;4.404;2024-02-26T07:00:28;3.75;;;3.00;;
7899;SDS011;3995;50.856;4.404;2024-02-26T07:02:55;3.80;;;3.10;;
7899;SDS011;3995;50.856;4.404;2024-02-26T07:05:23;4.82;;;3.25;;
7899;SDS011;3995;50.856;4.404;2024-02-26T07:07:50;5.22;;;3.45;;
7899;SDS011;3995;50.856;4.404;2024-02-26T07:10:17;3.47;;;3.17;;
7899;SDS011;3995;50.856;4.404;2024-02-26T07:12:44;3.78;;;3.30;;
7899;SDS011;3995;50.856;4.404;2024-02-26T07:15:12;3.65;;;3.35;;
7899;SDS011;3995;50.856;4.404;2024-02-26T07:17:39;4.45;;;3.35;;
7899;SDS011;3995;50.856;4.404;2024-02-26T07:20:12;3.45;;;3.15;;
7899;SDS011;3995;50.856;4.404;2024-02-26T07:22:39;3.30;;;3.00;;
7899;SDS011;3995;50.856;4.404;2024-02-26T07:25:07;3.67;;;2.83;;
7899;SDS011;3995;50.856;4.404;2024-02-26T07:27:38;3.15;;;2.85;;
7899;SDS011;3995;50.856;4.404;2024-02-26T07:30:06;3.55;;;3.25;;
7899;SDS011;3995;50.856;4.404;2024-02-26T07:32:35;3.80;;;3.40;;
7899;SDS011;3995;50.856;4.404;2024-02-26T07:35:03;3.58;;;3.28;;
7899;SDS011;3995;50.856;4.404;2024-02-26T07:37:30;3.50;;;3.20;;
7899;SDS011;3995;50.856;4.404;2024-02-26T07:39:57;3.53;;;3.22;;
7899;SDS011;3995;50.856;4.404;2024-02-26T07:42:25;3.65;;;2.95;;
7899;SDS011;3995;50.856;4.404;2024-02-26T07:44:52;4.55;;;3.45;;
7899;SDS011;3995;50.856;4.404;2024-02-26T07:47:19;4.05;;;3.20;;
7899;SDS011;3995;50.856;4.404;2024-02-26T07:49:48;3.90;;;3.60;;
7899;SDS011;3995;50.856;4.404;2024-02-26T07:52:15;3.08;;;2.75;;
7899;SDS011;3995;50.856;4.404;2024-02-26T07:54:42;3.50;;;3.20;;
7899;SDS011;3995;50.856;4.404;2024-02-26T07:57:09;3.70;;;3.38;;
7899;SDS011;3995;50.856;4.404;2024-02-26T07:59:35;3.35;;;3.05;;
7899;SDS011;3995;50.856;4.404;2024-02-26T08:02:02;3.70;;;3.25;;
7899;SDS011;3995;50.856;4.404;2024-02-26T08:04:30;5.47;;;2.90;;
7899;SDS011;3995;50.856;4.404;2024-02-26T08:06:59;3.22;;;2.70;;
7899;SDS011;3995;50.856;4.404;2024-02-26T08:09:26;3.10;;;2.80;;
7899;SDS011;3995;50.856;4.404;2024-02-26T08:11:53;2.60;;;2.40;;
7899;SDS011;3995;50.856;4.404;2024-02-26T08:14:20;3.65;;;3.35;;
7899;SDS011;3995;50.856;4.404;2024-02-26T08:16:47;2.70;;;2.47;;
7899;SDS011;3995;50.856;4.404;2024-02-26T08:19:14;2.90;;;2.70;;
7899;SDS011;3995;50.856;4.404;2024-02-26T08:21:42;4.93;;;2.80;;
7899;SDS011;3995;50.856;4.404;2024-02-26T08:24:11;3.30;;;3.00;;
7899;SDS011;3995;50.856;4.404;2024-02-26T08:26:38;3.03;;;2.70;;
7899;SDS011;3995;50.856;4.404;2024-02-26T08:29:05;3.15;;;2.85;;
7899;SDS011;3995;50.856;4.404;2024-02-26T08:31:32;3.05;;;2.75;;
7899;SDS011;3995;50.856;4.404;2024-02-26T08:34:01;2.75;;;2.55;;
7899;SDS011;3995;50.856;4.404;2024-02-26T08:36:28;2.72;;;2.50;;
7899;SDS011;3995;50.856;4.404;2024-02-26T08:38:55;2.97;;;2.63;;
7899;SDS011;3995;50.856;4.404;2024-02-26T08:41:23;3.15;;;2.85;;
7899;SDS011;3995;50.856;4.404;2024-02-26T08:43:50;2.63;;;2.42;;
7899;SDS011;3995;50.856;4.404;2024-02-26T08:46:17;3.55;;;3.22;;
7899;SDS011;3995;50.856;4.404;2024-02-26T08:48:44;2.95;;;2.67;;
7899;SDS011;3995;50.856;4.404;2024-02-26T08:51:12;3.65;;;2.60;;
7899;SDS011;3995;50.856;4.404;2024-02-26T08:53:39;3.00;;;2.60;;
7899;SDS011;3995;50.856;4.404;2024-02-26T08:56:06;2.67;;;2.47;;
7899;SDS011;3995;50.856;4.404;2024-02-26T08:58:34;3.78;;;2.35;;
7899;SDS011;3995;50.856;4.404;2024-02-26T09:01:01;2.63;;;2.42;;
7899;SDS011;3995;50.856;4.404;2024-02-26T09:03:29;3.63;;;3.08;;
7899;SDS011;3995;50.856;4.404;2024-02-26T09:05:56;3.35;;;2.63;;
7899;SDS011;3995;50.856;4.404;2024-02-26T09:08:23;3.20;;;2.47;;
7899;SDS011;3995;50.856;4.404;2024-02-26T09:10:50;3.47;;;2.90;;
7899;SDS011;3995;50.856;4.404;2024-02-26T09:13:17;5.10;;;4.60;;
7899;SDS011;3995;50.856;4.404;2024-02-26T09:15:45;3.00;;;2.70;;
7899;SDS011;3995;50.856;4.404;2024-02-26T09:18:12;5.93;;;3.00;;
7899;SDS011;3995;50.856;4.404;2024-02-26T09:20:40;2.95;;;2.75;;
7899;SDS011;3995;50.856;4.404;2024-02-26T09:23:07;2.95;;;2.65;;
7899;SDS011;3995;50.856;4.404;2024-02-26T09:25:34;3.40;;;2.53;;
7899;SDS011;3995;50.856;4.404;2024-02-26T09:28:00;3.22;;;2.92;;
7899;SDS011;3995;50.856;4.404;2024-02-26T09:30:28;2.67;;;2.47;;
7899;SDS011;3995;50.856;4.404;2024-02-26T09:32:57;2.83;;;2.63;;
7899;SDS011;3995;50.856;4.404;2024-02-26T09:35:24;3.05;;;2.78;;
7899;SDS011;3995;50.856;4.404;2024-02-26T09:37:51;2.70;;;2.50;;
7899;SDS011;3995;50.856;4.404;2024-02-26T09:40:19;2.78;;;2.50;;
7899;SDS011;3995;50.856;4.404;2024-02-26T09:42:47;2.88;;;2.67;;
7899;SDS011;3995;50.856;4.404;2024-02-26T09:45:18;2.65;;;2.45;;
7899;SDS011;3995;50.856;4.404;2024-02-26T09:47:48;3.25;;;2.95;;
7899;SDS011;3995;50.856;4.404;2024-02-26T09:50:17;2.67;;;2.47;;
7899;SDS011;3995;50.856;4.404;2024-02-26T09:52:48;2.92;;;2.60;;
7899;SDS011;3995;50.856;4.404;2024-02-26T09:55:16;4.38;;;2.50;;
7899;SDS011;3995;50.856;4.404;2024-02-26T09:57:45;3.00;;;2.70;;
7899;SDS011;3995;50.856;4.404;2024-02-26T10:00:14;3.40;;;3.10;;
7899;SDS011;3995;50.856;4.404;2024-02-26T10:02:45;2.92;;;2.55;;
7899;SDS011;3995;50.856;4.404;2024-02-26T10:05:12;3.00;;;2.70;;
7899;SDS011;3995;50.856;4.404;2024-02-26T10:07:42;3.28;;;2.97;;
7899;SDS011;3995;50.856;4.404;2024-02-26T10:10:10;2.67;;;2.42;;
7899;SDS011;3995;50.856;4.404;2024-02-26T10:12:37;3.17;;;2.75;;
7899;SDS011;3995;50.856;4.404;2024-02-26T10:15:04;3.15;;;2.85;;
7899;SDS011;3995;50.856;4.404;2024-02-26T10:17:32;3.20;;;2.83;;
7899;SDS011;3995;50.856;4.404;2024-02-26T10:20:10;3.03;;;2.53;;
7899;SDS011;3995;50.856;4.404;2024-02-26T10:22:38;2.60;;;2.40;;
7899;SDS011;3995;50.856;4.404;2024-02-26T10:25:07;3.72;;;3.03;;
7899;SDS011;3995;50.856;4.404;2024-02-26T10:27:34;4.28;;;2.40;;
7899;SDS011;3995;50.856;4.404;2024-02-26T10:30:02;3.00;;;2.70;;
7899;SDS011;3995;50.856;4.404;2024-02-26T10:32:30;2.30;;;2.10;;
7899;SDS011;3995;50.856;4.404;2024-02-26T10:34:57;2.50;;;2.30;;
7899;SDS011;3995;50.856;4.404;2024-02-26T10:37:24;5.40;;;2.33;;
7899;SDS011;3995;50.856;4.404;2024-02-26T10:39:51;3.03;;;2.20;;
7899;SDS011;3995;50.856;4.404;2024-02-26T10:42:19;2.90;;;2.53;;
7899;SDS011;3995;50.856;4.404;2024-02-26T10:44:46;2.05;;;1.85;;
7899;SDS011;3995;50.856;4.404;2024-02-26T10:47:14;2.30;;;2.10;;
7899;SDS011;3995;50.856;4.404;2024-02-26T10:49:44;2.05;;;1.85;;
7899;SDS011;3995;50.856;4.404;2024-02-26T10:52:12;2.40;;;2.20;;
7899;SDS011;3995;50.856;4.404;2024-02-26T10:54:41;2.10;;;1.90;;
7899;SDS011;3995;50.856;4.404;2024-02-26T10:57:12;3.08;;;2.13;;
7899;SDS011;3995;50.856;4.404;2024-02-26T10:59:41;2.53;;;1.70;;
7899;SDS011;3995;50.856;4.404;2024-02-26T11:02:09;2.58;;;1.95;;
7899;SDS011;3995;50.856;4.404;2024-02-26T11:04:38;1.95;;;1.75;;
7899;SDS011;3995;50.856;4.404;2024-02-26T11:07:06;3.15;;;2.20;;
7899;SDS011;3995;50.856;4.404;2024-02-26T11:09:35;2.55;;;2.15;;
7899;SDS011;3995;50.856;4.404;2024-02-26T11:12:07;1.75;;;1.60;;
7899;SDS011;3995;50.856;4.404;2024-02-26T11:14:38;2.65;;;1.55;;
7899;SDS011;3995;50.856;4.404;2024-02-26T11:17:08;1.67;;;1.58;;
7899;SDS011;3995;50.856;4.404;2024-02-26T11:19:37;1.90;;;1.70;;
7899;SDS011;3995;50.856;4.404;2024-02-26T11:22:05;2.22;;;1.70;;
7899;SDS011;3995;50.856;4.404;2024-02-26T11:24:32;2.00;;;1.80;;
7899;SDS011;3995;50.856;4.404;2024-02-26T11:26:59;1.90;;;1.50;;
7899;SDS011;3995;50.856;4.404;2024-02-26T11:29:32;1.83;;;1.45;;
7899;SDS011;3995;50.856;4.404;2024-02-26T11:32:03;2.03;;;1.60;;
7899;SDS011;3995;50.856;4.404;2024-02-26T11:34:33;3.08;;;1.67;;
7899;SDS011;3995;50.856;4.404;2024-02-26T11:37:08;2.67;;;1.40;;
7899;SDS011;3995;50.856;4.404;2024-02-26T11:39:36;2.28;;;1.63;;
7899;SDS011;3995;50.856;4.404;2024-02-26T11:42:05;3.10;;;1.50;;
7899;SDS011;3995;50.856;4.404;2024-02-26T11:44:33;1.85;;;1.70;;
7899;SDS011;3995;50.856;4.404;2024-02-26T11:47:09;1.60;;;1.40;;
7899;SDS011;3995;50.856;4.404;2024-02-26T11:49:38;1.65;;;1.45;;
7899;SDS011;3995;50.856;4.404;2024-02-26T11:52:06;2.60;;;1.40;;
7899;SDS011;3995;50.856;4.404;2024-02-26T11:54:40;1.85;;;1.55;;
7899;SDS011;3995;50.856;4.404;2024-02-26T11:57:23;2.30;;;1.60;;
7899;SDS011;3995;50.856;4.404;2024-02-26T11:59:52;2.13;;;1.42;;
7899;SDS011;3995;50.856;4.404;2024-02-26T12:02:39;2.20;;;1.70;;
7899;SDS011;3995;50.856;4.404;2024-02-26T12:05:10;2.15;;;1.60;;
7899;SDS011;3995;50.856;4.404;2024-02-26T12:07:39;2.40;;;1.58;;
7899;SDS011;3995;50.856;4.404;2024-02-26T12:10:15;3.25;;;1.50;;
7899;SDS011;3995;50.856;4.404;2024-02-26T12:12:55;1.50;;;1.40;;
7899;SDS011;3995;50.856;4.404;2024-02-26T12:15:30;1.75;;;1.58;;
7899;SDS011;3995;50.856;4.404;2024-02-26T12:18:00;1.88;;;1.67;;
7899;SDS011;3995;50.856;4.404;2024-02-26T12:20:29;2.40;;;1.70;;
7899;SDS011;3995;50.856;4.404;2024-02-26T12:22:57;2.20;;;2.00;;
7899;SDS011;3995;50.856;4.404;2024-02-26T12:25:24;2.97;;;1.40;;
7899;SDS011;3995;50.856;4.404;2024-02-26T12:27:52;2.60;;;1.90;;
7899;SDS011;3995;50.856;4.404;2024-02-26T12:30:20;1.92;;;1.70;;
7899;SDS011;3995;50.856;4.404;2024-02-26T12:32:47;2.40;;;1.85;;
7899;SDS011;3995;50.856;4.404;2024-02-26T12:35:15;2.13;;;1.80;;
7899;SDS011;3995;50.856;4.404;2024-02-26T12:37:44;4.65;;;1.75;;
7899;SDS011;3995;50.856;4.404;2024-02-26T12:40:12;4.18;;;2.00;;
7899;SDS011;3995;50.856;4.404;2024-02-26T12:42:40;2.40;;;1.38;;
7899;SDS011;3995;50.856;4.404;2024-02-26T12:45:08;2.65;;;1.73;;
7899;SDS011;3995;50.856;4.404;2024-02-26T12:47:37;2.15;;;1.73;;
7899;SDS011;3995;50.856;4.404;2024-02-26T12:50:04;2.10;;;1.90;;
7899;SDS011;3995;50.856;4.404;2024-02-26T12:52:33;5.15;;;1.80;;
7899;SDS011;3995;50.856;4.404;2024-02-26T12:55:02;1.83;;;1.70;;
7899;SDS011;3995;50.856;4.404;2024-02-26T12:57:30;2.83;;;2.20;;
7899;SDS011;3995;50.856;4.404;2024-02-26T12:59:58;2.78;;;1.98;;
7899;SDS011;3995;50.856;4.404;2024-02-26T13:02:26;2.15;;;1.85;;
7899;SDS011;3995;50.856;4.404;2024-02-26T13:04:53;2.40;;;2.15;;
7899;SDS011;3995;50.856;4.404;2024-02-26T13:07:21;2.45;;;2.15;;
7899;SDS011;3995;50.856;4.404;2024-02-26T13:09:48;3.53;;;2.05;;
7899;SDS011;3995;50.856;4.404;2024-02-26T13:12:17;2.00;;;1.80;;
7899;SDS011;3995;50.856;4.404;2024-02-26T13:14:44;2.50;;;1.77;;
7899;SDS011;3995;50.856;4.404;2024-02-26T13:17:11;2.83;;;2.53;;
7899;SDS011;3995;50.856;4.404;2024-02-26T13:19:48;2.78;;;1.90;;
7899;SDS011;3995;50.856;4.404;2024-02-26T13:22:15;2.13;;;1.80;;
7899;SDS011;3995;50.856;4.404;2024-02-26T13:24:52;2.67;;;2.20;;
7899;SDS011;3995;50.856;4.404;2024-02-26T13:27:22;2.17;;;1.98;;
7899;SDS011;3995;50.856;4.404;2024-02-26T13:29:50;3.25;;;2.95;;
7899;SDS011;3995;50.856;4.404;2024-02-26T13:32:32;2.88;;;2.28;;
7899;SDS011;3995;50.856;4.404;2024-02-26T13:35:07;2.55;;;2.35;;
7899;SDS011;3995;50.856;4.404;2024-02-26T13:37:35;2.40;;;2.20;;
7899;SDS011;3995;50.856;4.404;2024-02-26T13:40:04;3.22;;;2.55;;
7899;SDS011;3995;50.856;4.404;2024-02-26T13:42:33;2.40;;;2.20;;
7899;SDS011;3995;50.856;4.404;2024-02-26T13:45:00;2.60;;;2.40;;
7899;SDS011;3995;50.856;4.404;2024-02-26T13:47:28;3.05;;;2.60;;
7899;SDS011;3995;50.856;4.404;2024-02-26T13:49:55;4.35;;;2.50;;
7899;SDS011;3995;50.856;4.404;2024-02-26T13:52:22;2.63;;;2.42;;
7899;SDS011;3995;50.856;4.404;2024-02-26T13:54:49;3.20;;;2.83;;
7899;SDS011;3995;50.856;4.404;2024-02-26T13:57:16;3.30;;;2.97;;
7899;SDS011;3995;50.856;4.404;2024-02-26T13:59:45;6.95;;;2.60;;
7899;SDS011;3995;50.856;4.404;2024-02-26T14:02:12;3.47;;;2.92;;
7899;SDS011;3995;50.856;4.404;2024-02-26T14:04:39;3.78;;;2.70;;
7899;SDS011;3995;50.856;4.404;2024-02-26T14:07:06;3.50;;;3.20;;
7899;SDS011;3995;50.856;4.404;2024-02-26T14:09:34;3.65;;;3.25;;
7899;SDS011;3995;50.856;4.404;2024-02-26T14:12:01;5.80;;;3.30;;
7899;SDS011;3995;50.856;4.404;2024-02-26T14:14:28;4.50;;;3.42;;
7899;SDS011;3995;50.856;4.404;2024-02-26T14:16:59;4.10;;;3.60;;
7899;SDS011;3995;50.856;4.404;2024-02-26T14:19:26;3.40;;;3.10;;
7899;SDS011;3995;50.856;4.404;2024-02-26T14:21:53;4.03;;;3.65;;
7899;SDS011;3995;50.856;4.404;2024-02-26T14:24:20;4.38;;;3.38;;
7899;SDS011;3995;50.856;4.404;2024-02-26T14:26:47;3.83;;;3.50;;
7899;SDS011;3995;50.856;4.404;2024-02-26T14:29:14;4.20;;;3.80;;
7899;SDS011;3995;50.856;4.404;2024-02-26T14:31:41;3.50;;;3.20;;
7899;SDS011;3995;50.856;4.404;2024-02-26T14:34:10;8.68;;;4.18;;
7899;SDS011;3995;50.856;4.404;2024-02-26T14:36:37;4.18;;;3.80;;
7899;SDS011;3995;50.856;4.404;2024-02-26T14:39:04;5.10;;;3.80;;
7899;SDS011;3995;50.856;4.404;2024-02-26T14:41:31;4.53;;;3.13;;
7899;SDS011;3995;50.856;4.404;2024-02-26T14:43:58;9.13;;;3.67;;
7899;SDS011;3995;50.856;4.404;2024-02-26T14:46:25;3.97;;;3.58;;
7899;SDS011;3995;50.856;4.404;2024-02-26T14:48:52;3.60;;;3.30;;
7899;SDS011;3995;50.856;4.404;2024-02-26T14:51:21;8.43;;;4.13;;
7899;SDS011;3995;50.856;4.404;2024-02-26T14:53:48;4.38;;;3.97;;
7899;SDS011;3995;50.856;4.404;2024-02-26T14:56:15;4.38;;;3.97;;
7899;SDS011;3995;50.856;4.404;2024-02-26T14:58:44;9.27;;;3.88;;
7899;SDS011;3995;50.856;4.404;2024-02-26T15:01:11;4.53;;;4.13;;
7899;SDS011;3995;50.856;4.404;2024-02-26T15:03:39;4.28;;;3.83;;
7899;SDS011;3995;50.856;4.404;2024-02-26T15:06:05;4.25;;;3.85;;
7899;SDS011;3995;50.856;4.404;2024-02-26T15:08:34;4.50;;;4.10;;
7899;SDS011;3995;50.856;4.404;2024-02-26T15:11:02;3.72;;;3.40;;
7899;SDS011;3995;50.856;4.404;2024-02-26T15:13:30;5.78;;;3.95;;
7899;SDS011;3995;50.856;4.404;2024-02-26T15:15:57;16.10;;;5.70;;
7899;SDS011;3995;50.856;4.404;2024-02-26T15:18:24;3.40;;;3.10;;